createdAt,value
2019-04-19T00:01:01.386Z,5.00
2019-04-19T00:03:30.497Z,5.20
2019-04-19T00:06:19.056Z,4.90
2019-04-19T00:09:01.466Z,5.00
2019-04-19T00:11:21.068Z,5.40
2019-04-19T00:13:38.913Z,4.97
2019-04-19T00:16:06.754Z,4.70
2019-04-19T00:18:38.959Z,5.00
2019-04-19T00:21:18.306Z,5.00
2019-04-19T00:23:36.620Z,5.00
2019-04-19T00:25:59.892Z,5.17
2019-04-19T00:28:36.707Z,5.17
2019-04-19T00:31:13.365Z,5.17
2019-04-19T00:33:32.831Z,5.30
2019-04-19T00:35:53.704Z,5.30
2019-04-19T00:38:40.510Z,5.20
2019-04-19T00:41:14.172Z,5.87
2019-04-19T00:43:57.644Z,4.77
2019-04-19T00:46:33.993Z,4.90
2019-04-19T00:48:58.493Z,4.97
2019-04-19T00:51:22.954Z,4.57
2019-04-19T00:53:58.848Z,4.47
2019-04-19T00:56:16.771Z,4.97
2019-04-19T00:58:48.449Z,5.50
2019-04-19T01:01:17.155Z,5.13
2019-04-19T01:03:43.649Z,5.60
2019-04-19T01:06:10.649Z,4.90
2019-04-19T01:08:49.062Z,5.40
2019-04-19T01:11:20.982Z,4.80
2019-04-19T01:13:50.610Z,4.90
2019-04-19T01:16:18.714Z,4.83
2019-04-19T01:18:44.408Z,4.63
2019-04-19T01:21:04.961Z,5.40
2019-04-19T01:23:40.593Z,5.00
2019-04-19T01:26:05.285Z,5.10
2019-04-19T01:28:30.582Z,5.17
2019-04-19T01:30:58.956Z,5.00
2019-04-19T01:33:35.484Z,5.53
2019-04-19T01:36:00.078Z,4.90
2019-04-19T01:38:27.381Z,5.17
2019-04-19T01:41:12.090Z,4.83
2019-04-19T01:43:49.766Z,5.43
2019-04-19T01:46:43.690Z,5.40
2019-04-19T01:49:22.640Z,5.20
2019-04-19T01:52:09.807Z,4.90
2019-04-19T01:54:33.375Z,4.90
2019-04-19T01:56:55.159Z,4.80
2019-04-19T01:59:31.503Z,4.80
2019-04-19T02:02:01.770Z,4.80
2019-04-19T02:04:28.182Z,4.60
2019-04-19T02:06:54.640Z,4.70
2019-04-19T02:09:31.321Z,4.87
2019-04-19T02:12:11.050Z,16.50
2019-04-19T02:14:35.507Z,5.53
2019-04-19T02:16:59.154Z,6.23
2019-04-19T02:19:25.128Z,5.13
2019-04-19T02:21:51.045Z,4.67
2019-04-19T02:24:28.153Z,5.60
2019-04-19T02:26:54.013Z,4.77
2019-04-19T02:29:21.823Z,6.20
2019-04-19T02:32:13.642Z,5.40
2019-04-19T02:34:42.459Z,4.67
2019-04-19T02:37:16.278Z,5.50
2019-04-19T02:39:47.306Z,5.10
2019-04-19T02:44:55.284Z,4.90
2019-04-19T02:52:15.099Z,5.27
2019-04-19T02:54:49.860Z,5.13
2019-04-19T02:57:48.210Z,4.83
2019-04-19T03:00:24.793Z,5.40
2019-04-19T03:05:38.372Z,5.50
2019-04-19T03:07:32.176Z,5.83
2019-04-19T03:10:00.009Z,5.60
2019-04-19T03:12:48.272Z,5.07
2019-04-19T03:15:09.556Z,5.03
2019-04-19T03:17:45.850Z,5.03
2019-04-19T03:20:15.213Z,5.23
2019-04-19T03:22:39.177Z,5.20
2019-04-19T03:25:10.870Z,4.97
2019-04-19T03:27:28.502Z,5.10
2019-04-19T03:30:04.519Z,5.57
2019-04-19T03:33:00.414Z,5.10
2019-04-19T03:37:30.590Z,4.77
2019-04-19T03:40:12.893Z,5.43
2019-04-19T03:43:10.656Z,4.93
2019-04-19T03:45:47.416Z,4.93
2019-04-19T03:48:10.023Z,4.60
2019-04-19T03:50:37.386Z,5.23
2019-04-19T03:53:06.883Z,5.27
2019-04-19T03:55:29.890Z,5.70
2019-04-19T03:57:52.294Z,5.13
2019-04-19T04:00:13.313Z,5.03
2019-04-19T04:02:43.399Z,5.30
2019-04-19T04:05:11.141Z,5.33
2019-04-19T04:07:38.947Z,5.47
2019-04-19T04:10:23.810Z,5.37
2019-04-19T04:13:09.278Z,5.10
2019-04-19T04:16:03.519Z,5.40
2019-04-19T04:18:15.749Z,5.27
2019-04-19T04:20:47.623Z,5.33
2019-04-19T04:23:17.934Z,4.93
2019-04-19T04:25:48.445Z,5.27
2019-04-19T04:28:23.557Z,5.30
2019-04-19T04:30:51.689Z,4.90
2019-04-19T04:33:21.681Z,5.80
2019-04-19T04:35:48.386Z,5.10
2019-04-19T04:38:11.099Z,5.03
2019-04-19T04:40:33.729Z,5.53
2019-04-19T04:43:15.284Z,5.40
2019-04-19T04:46:05.245Z,5.80
2019-04-19T04:48:51.046Z,4.90
2019-04-19T04:51:22.078Z,6.07
2019-04-19T04:53:51.110Z,8.27
2019-04-19T04:56:25.992Z,5.87
2019-04-19T04:58:52.446Z,5.37
2019-04-19T05:01:29.049Z,5.23
2019-04-19T05:04:07.427Z,6.13
2019-04-19T05:06:36.438Z,5.90
2019-04-19T05:09:05.155Z,5.67
2019-04-19T05:11:33.931Z,4.90
2019-04-19T05:14:05.907Z,6.07
2019-04-19T05:16:41.732Z,5.90
2019-04-19T05:18:58.411Z,5.43
2019-04-19T05:21:28.580Z,5.83
2019-04-19T05:24:05.425Z,5.77
2019-04-19T05:26:43.660Z,5.80
2019-04-19T05:28:54.347Z,5.80
2019-04-19T05:31:21.621Z,5.93
2019-04-19T05:33:53.854Z,5.20
2019-04-19T05:36:29.271Z,5.77
2019-04-19T05:39:17.224Z,5.50
2019-04-19T05:42:04.077Z,5.20
2019-04-19T05:45:00.093Z,4.90
2019-04-19T05:47:20.734Z,6.40
2019-04-19T05:49:45.291Z,5.73
2019-04-19T05:52:19.216Z,5.43
2019-04-19T05:54:27.878Z,5.50
2019-04-19T05:56:59.424Z,5.90
2019-04-19T06:02:07.511Z,5.60
2019-04-19T06:04:38.748Z,5.30
2019-04-19T06:07:09.460Z,5.47
2019-04-19T06:09:23.969Z,5.43
2019-04-19T06:11:51.404Z,5.87
2019-04-19T06:14:46.482Z,5.43
2019-04-19T06:17:24.995Z,5.57
2019-04-19T06:19:50.422Z,5.30
2019-04-19T06:22:20.214Z,5.40
2019-04-19T06:24:51.990Z,5.27
2019-04-19T06:27:25.235Z,5.87
2019-04-19T06:30:03.640Z,5.27
2019-04-19T06:32:20.869Z,5.40
2019-04-19T06:34:46.694Z,5.67
2019-04-19T06:37:08.390Z,5.73
2019-04-19T06:39:31.714Z,5.70
2019-04-19T06:42:04.344Z,5.33
2019-04-19T06:44:50.649Z,4.97
2019-04-19T06:47:10.569Z,4.87
2019-04-19T06:49:29.434Z,5.27
2019-04-19T06:52:03.858Z,4.40
2019-04-19T06:54:33.138Z,4.83
2019-04-19T06:57:07.657Z,4.90
2019-04-19T06:59:39.261Z,4.90
2019-04-19T07:01:55.851Z,4.90
2019-04-19T07:04:21.156Z,4.90
2019-04-19T07:07:13.313Z,5.03
2019-04-19T07:09:56.561Z,5.07
2019-04-19T07:12:06.719Z,4.57
2019-04-19T07:14:20.640Z,5.10
2019-04-19T07:17:02.645Z,4.83
2019-04-19T07:19:35.002Z,4.37
2019-04-19T07:21:55.254Z,4.90
2019-04-19T07:24:33.600Z,4.87
2019-04-19T07:26:58.073Z,4.63
2019-04-19T07:29:08.324Z,4.60
2019-04-19T07:31:37.020Z,4.70
2019-04-19T07:34:13.595Z,4.70
2019-04-19T07:36:54.600Z,4.60
2019-04-19T07:39:22.834Z,4.73
2019-04-19T07:41:45.325Z,4.20
2019-04-19T07:44:41.112Z,5.00
2019-04-19T07:47:27.691Z,4.47
2019-04-19T07:49:51.403Z,5.17
2019-04-19T07:52:19.107Z,4.80
2019-04-19T07:54:40.727Z,4.80
2019-04-19T07:57:45.743Z,4.50
2019-04-19T08:00:00.762Z,4.73
2019-04-19T08:02:36.082Z,4.80
2019-04-19T08:05:06.169Z,4.43
2019-04-19T08:10:03.479Z,4.60
2019-04-19T08:12:30.690Z,4.67
2019-04-19T08:29:38.388Z,5.10
2019-04-19T08:31:57.920Z,5.00
2019-04-19T08:34:28.319Z,5.03
2019-04-19T08:36:59.453Z,4.80
2019-04-19T08:40:40.878Z,4.50
2019-04-19T08:42:10.746Z,6.67
2019-04-19T08:44:38.658Z,4.50
2019-04-19T08:47:21.417Z,4.13
2019-04-19T08:49:47.738Z,4.70
2019-04-19T08:52:25.711Z,4.63
2019-04-19T08:55:09.889Z,4.30
2019-04-19T08:57:22.620Z,4.50
2019-04-19T09:00:19.104Z,5.03
2019-04-19T09:02:34.095Z,4.13
2019-04-19T09:05:03.992Z,4.43
2019-04-19T09:10:27.619Z,4.23
2019-04-19T09:12:31.237Z,3.90
2019-04-19T09:15:00.929Z,5.23
2019-04-19T09:17:43.246Z,4.00
2019-04-19T09:20:14.124Z,4.43
2019-04-19T09:22:27.650Z,4.30
2019-04-19T09:24:48.031Z,4.03
2019-04-19T09:27:32.906Z,4.70
2019-04-19T09:30:13.692Z,4.33
2019-04-19T09:32:11.963Z,3.90
2019-04-19T09:34:34.962Z,4.33
2019-04-19T09:37:11.697Z,4.10
2019-04-19T09:39:44.173Z,4.33
2019-04-19T09:42:13.891Z,3.80
2019-04-19T09:44:43.092Z,4.60
2019-04-19T09:47:05.589Z,4.13
2019-04-19T09:49:51.414Z,4.67
2019-04-19T09:52:27.884Z,4.07
2019-04-19T09:54:55.553Z,4.23
2019-04-19T09:57:13.177Z,4.73
2019-04-19T09:59:32.845Z,4.40
2019-04-19T10:02:00.637Z,4.37
2019-04-19T10:04:25.162Z,4.40
2019-04-19T10:06:54.825Z,4.17
2019-04-19T10:09:22.739Z,4.50
2019-04-19T10:11:50.919Z,4.73
2019-04-19T10:14:19.248Z,4.67
2019-04-19T10:16:52.731Z,4.60
2019-04-19T10:19:19.461Z,4.13
2019-04-19T10:22:10.022Z,3.80
2019-04-19T10:24:36.938Z,4.40
2019-04-19T10:27:17.653Z,4.47
2019-04-19T10:29:47.019Z,4.70
2019-04-19T10:32:22.931Z,4.90
2019-04-19T10:34:52.536Z,4.60
2019-04-19T10:37:20.273Z,4.30
2019-04-19T10:39:48.194Z,4.53
2019-04-19T10:42:18.599Z,4.43
2019-04-19T10:45:00.503Z,4.30
2019-04-19T10:47:29.309Z,4.77
2019-04-19T10:50:12.051Z,5.10
2019-04-19T10:52:26.073Z,4.30
2019-04-19T10:54:53.483Z,4.43
2019-04-19T10:57:21.341Z,4.83
2019-04-19T10:59:50.129Z,4.90
2019-04-19T11:02:21.193Z,4.73
2019-04-19T11:04:48.904Z,5.03
2019-04-19T11:07:23.552Z,5.30
2019-04-19T11:09:51.375Z,5.30
2019-04-19T11:12:18.166Z,5.00
2019-04-19T11:14:46.116Z,5.10
2019-04-19T11:17:15.935Z,5.30
2019-04-19T11:19:58.865Z,5.17
2019-04-19T11:22:12.037Z,4.90
2019-04-19T11:24:39.193Z,4.87
2019-04-19T11:27:07.195Z,4.73
2019-04-19T11:29:34.528Z,4.80
2019-04-19T11:32:28.222Z,4.23
2019-04-19T11:34:55.690Z,4.20
2019-04-19T11:37:23.422Z,4.60
2019-04-19T11:39:51.007Z,4.53
2019-04-19T11:42:19.162Z,4.80
2019-04-19T11:44:46.180Z,4.67
2019-04-19T11:47:13.699Z,4.90
2019-04-19T11:49:42.689Z,4.90
2019-04-19T11:52:16.813Z,6.30
2019-04-19T11:54:44.267Z,5.90
2019-04-19T11:57:24.157Z,5.07
2019-04-19T11:59:57.429Z,5.00
2019-04-19T12:02:35.904Z,5.00
2019-04-19T12:05:12.809Z,4.83
2019-04-19T12:07:34.730Z,5.23
2019-04-19T12:10:03.064Z,5.37
2019-04-19T12:12:30.859Z,4.70
2019-04-19T12:14:57.837Z,5.17
2019-04-19T12:17:29.210Z,4.73
2019-04-19T12:20:00.815Z,5.00
2019-04-19T12:22:25.370Z,5.00
2019-04-19T12:24:54.956Z,4.77
2019-04-19T12:27:23.509Z,4.77
2019-04-19T12:29:53.308Z,5.03
2019-04-19T12:32:21.655Z,5.10
2019-04-19T12:34:48.730Z,5.10
2019-04-19T12:37:19.449Z,5.30
2019-04-19T12:39:52.847Z,5.10
2019-04-19T12:42:35.923Z,5.10
2019-04-19T12:45:08.048Z,4.60
2019-04-19T12:47:35.452Z,4.40
2019-04-19T12:50:06.958Z,5.47
2019-04-19T12:52:40.054Z,5.00
2019-04-19T12:55:08.200Z,5.03
2019-04-19T12:57:41.595Z,5.70
2019-04-19T13:00:09.924Z,5.20
2019-04-19T13:02:51.795Z,5.43
2019-04-19T13:05:28.242Z,4.87
2019-04-19T13:07:56.764Z,4.90
2019-04-19T13:10:24.897Z,5.23
2019-04-19T13:12:52.054Z,5.00
2019-04-19T13:15:23.790Z,5.10
2019-04-19T13:17:52.156Z,4.73
2019-04-19T13:20:25.808Z,4.33
2019-04-19T13:22:48.525Z,4.70
2019-04-19T13:25:17.295Z,4.77
2019-04-19T13:27:54.241Z,5.60
2019-04-19T13:30:29.520Z,4.70
2019-04-19T13:32:49.526Z,4.70
2019-04-19T13:35:17.101Z,4.63
2019-04-19T13:38:11.194Z,4.70
2019-04-19T13:41:00.812Z,5.10
2019-04-19T13:43:31.198Z,4.60
2019-04-19T13:45:58.898Z,4.67
2019-04-19T13:48:28.269Z,4.10
2019-04-19T13:50:56.290Z,4.67
2019-04-19T13:53:24.670Z,4.30
2019-04-19T13:55:54.862Z,4.60
2019-04-19T13:58:22.059Z,4.30
2019-04-19T14:00:54.403Z,4.67
2019-04-19T14:03:21.480Z,4.70
2019-04-19T14:05:49.935Z,4.50
2019-04-19T14:08:17.456Z,4.40
2019-04-19T14:10:47.138Z,4.43
2019-04-19T14:13:14.876Z,4.20
2019-04-19T14:15:44.839Z,4.27
2019-04-19T14:18:17.120Z,4.00
2019-04-19T14:20:48.589Z,4.43
2019-04-19T14:23:13.267Z,4.20
2019-04-19T14:25:41.196Z,3.87
2019-04-19T14:28:09.403Z,4.60
2019-04-19T14:30:37.488Z,4.00
2019-04-19T14:33:08.405Z,4.50
2019-04-19T14:35:42.017Z,4.00
2019-04-19T14:38:09.492Z,3.67
2019-04-19T14:40:41.604Z,3.97
2019-04-19T14:43:08.868Z,3.80
2019-04-19T14:45:36.363Z,3.77
2019-04-19T14:48:06.772Z,4.07
2019-04-19T14:50:42.575Z,3.50
2019-04-19T14:53:03.601Z,4.73
2019-04-19T14:55:30.473Z,4.00
2019-04-19T14:57:57.163Z,3.40
2019-04-19T15:00:25.108Z,3.73
2019-04-19T15:03:02.840Z,3.87
2019-04-19T15:05:32.164Z,4.10
2019-04-19T15:07:58.938Z,4.40
2019-04-19T15:10:27.261Z,4.10
2019-04-19T15:12:54.576Z,3.90
2019-04-19T15:15:22.344Z,3.77
2019-04-19T15:17:49.630Z,4.33
2019-04-19T15:20:19.915Z,3.80
2019-04-19T15:22:47.489Z,4.00
2019-04-19T15:25:19.853Z,3.50
2019-04-19T15:27:47.154Z,3.83
2019-04-19T15:30:14.916Z,3.93
2019-04-19T15:32:42.416Z,3.57
2019-04-19T15:35:11.910Z,3.40
2019-04-19T15:37:41.674Z,3.70
2019-04-19T15:40:12.100Z,3.80
2019-04-19T15:42:38.986Z,3.83
2019-04-19T15:45:07.199Z,3.80
2019-04-19T15:47:42.588Z,3.70
2019-04-19T15:50:11.747Z,3.77
2019-04-19T15:52:39.898Z,3.70
2019-04-19T15:55:08.022Z,3.77
2019-04-19T15:57:36.264Z,4.30
2019-04-19T16:00:06.040Z,4.20
2019-04-19T16:02:53.886Z,3.70
2019-04-19T16:05:46.468Z,3.80
2019-04-19T16:08:22.651Z,3.97
2019-04-19T16:11:08.827Z,3.87
2019-04-19T16:13:36.151Z,4.00
2019-04-19T16:16:05.885Z,3.80
2019-04-19T16:18:36.136Z,3.80
2019-04-19T16:21:05.858Z,3.90
2019-04-19T16:23:32.630Z,3.77
2019-04-19T16:25:59.342Z,3.67
2019-04-19T16:28:27.428Z,4.00
2019-04-19T16:30:54.625Z,5.10
2019-04-19T16:33:22.096Z,3.80
2019-04-19T16:35:49.203Z,4.50
2019-04-19T16:38:16.390Z,4.10
2019-04-19T16:40:43.252Z,4.00
2019-04-19T16:43:11.220Z,4.10
2019-04-19T16:45:38.309Z,3.40
2019-04-19T16:48:06.634Z,3.60
2019-04-19T16:50:34.521Z,3.97
2019-04-19T16:53:04.388Z,3.70
2019-04-19T16:55:30.042Z,3.43
2019-04-19T16:57:57.149Z,4.33
2019-04-19T17:00:39.145Z,3.47
2019-04-19T17:03:07.055Z,3.60
2019-04-19T17:05:34.774Z,3.23
2019-04-19T17:08:01.690Z,3.60
2019-04-19T17:10:28.828Z,3.57
2019-04-19T17:12:55.908Z,3.43
2019-04-19T17:15:51.346Z,3.53
2019-04-19T17:18:26.932Z,3.53
2019-04-19T17:20:57.684Z,3.90
2019-04-19T17:23:24.571Z,3.43
2019-04-19T17:25:53.440Z,3.53
2019-04-19T17:28:21.143Z,3.13
2019-04-19T17:30:50.871Z,2.90
2019-04-19T17:33:17.963Z,3.10
2019-04-19T17:35:45.981Z,3.43
2019-04-19T17:38:25.001Z,3.00
2019-04-19T17:40:42.729Z,2.77
2019-04-19T17:43:09.842Z,3.23
2019-04-19T17:45:37.788Z,2.70
2019-04-19T17:48:04.877Z,2.60
2019-04-19T17:50:32.414Z,3.40
2019-04-19T17:53:00.338Z,3.30
2019-04-19T17:55:36.693Z,2.87
2019-04-19T17:58:01.264Z,3.37
2019-04-19T18:00:28.307Z,2.93
2019-04-19T18:03:01.479Z,3.40
2019-04-19T18:05:28.184Z,2.60
2019-04-19T18:07:56.041Z,2.90
2019-04-19T18:10:33.559Z,2.77
2019-04-19T18:12:53.236Z,4.30
2019-04-19T18:15:19.956Z,3.03
2019-04-19T18:17:54.250Z,2.87
2019-04-19T18:20:19.975Z,3.23
2019-04-19T18:22:58.168Z,3.03
2019-04-19T18:25:15.915Z,2.80
2019-04-19T18:27:48.645Z,3.43
2019-04-19T18:30:12.190Z,2.90
2019-04-19T18:32:47.889Z,3.50
2019-04-19T18:35:21.293Z,3.70
2019-04-19T18:37:45.773Z,3.40
2019-04-19T18:40:15.195Z,3.57
2019-04-19T18:42:53.122Z,3.70
2019-04-19T18:45:17.590Z,3.20
2019-04-19T18:47:43.215Z,3.70
2019-04-19T18:50:10.481Z,3.80
2019-04-19T18:52:48.515Z,4.03
2019-04-19T18:55:11.733Z,3.60
2019-04-19T18:57:39.483Z,3.63
2019-04-19T19:00:06.147Z,3.93
2019-04-19T19:02:34.367Z,5.80
2019-04-19T19:05:05.621Z,5.10
2019-04-19T19:07:31.163Z,4.30
2019-04-19T19:10:03.589Z,3.93
2019-04-19T19:12:26.719Z,3.50
2019-04-19T19:14:57.542Z,3.47
2019-04-19T19:17:23.870Z,3.90
2019-04-19T19:20:03.094Z,3.33
2019-04-19T19:22:32.078Z,3.73
2019-04-19T19:25:11.172Z,3.63
2019-04-19T19:27:25.587Z,3.40
2019-04-19T19:29:50.142Z,3.60
2019-04-19T19:32:19.494Z,3.53
2019-04-19T19:34:47.924Z,4.00
2019-04-19T19:37:20.758Z,3.80
2019-04-19T19:39:53.726Z,3.10
2019-04-19T19:44:53.590Z,3.70
2019-04-19T19:47:54.152Z,4.17
2019-04-19T19:50:27.983Z,3.60
2019-04-19T19:52:42.384Z,3.80
2019-04-19T19:55:11.522Z,3.60
2019-04-19T19:57:38.016Z,4.03
2019-04-19T20:00:04.326Z,4.20
2019-04-19T20:02:41.856Z,4.50
2019-04-19T20:04:53.375Z,3.90
2019-04-19T20:07:22.844Z,4.23
2019-04-19T20:09:55.341Z,3.70
2019-04-19T20:12:22.925Z,4.27
2019-04-19T20:14:47.279Z,3.77
2019-04-19T20:17:18.561Z,4.50
2019-04-19T20:19:48.890Z,4.53
2019-04-19T20:22:15.752Z,3.93
2019-04-19T20:24:54.980Z,4.03
2019-04-19T20:27:17.735Z,3.50
2019-04-19T20:29:43.809Z,3.37
2019-04-19T20:32:13.941Z,4.00
2019-04-19T20:34:39.009Z,4.90
2019-04-19T20:37:07.672Z,3.80
2019-04-19T20:39:37.579Z,3.80
2019-04-19T20:42:09.309Z,3.10
2019-04-19T20:44:53.349Z,3.83
2019-04-19T20:47:14.684Z,3.93
2019-04-19T20:49:43.772Z,4.40
2019-04-19T20:52:17.819Z,5.10
2019-04-19T20:55:00.222Z,4.57
2019-04-19T20:57:46.802Z,3.93
2019-04-19T21:00:02.577Z,4.30
2019-04-19T21:02:33.564Z,3.57
2019-04-19T21:04:59.175Z,3.53
2019-04-19T21:07:31.789Z,3.70
2019-04-19T21:10:04.051Z,3.57
2019-04-19T21:12:29.923Z,3.80
2019-04-19T21:15:09.383Z,4.33
2019-04-19T21:17:31.887Z,4.27
2019-04-19T21:19:52.679Z,3.80
2019-04-19T21:22:23.712Z,3.80
2019-04-19T21:25:04.973Z,3.50
2019-04-19T21:27:25.762Z,4.80
2019-04-19T21:29:50.011Z,3.67
2019-04-19T21:32:24.336Z,3.60
2019-04-19T21:34:45.958Z,3.97
2019-04-19T21:37:15.074Z,4.30
2019-04-19T21:39:50.619Z,3.67
2019-04-19T21:42:19.388Z,3.47
2019-04-19T21:44:53.074Z,3.10
2019-04-19T21:47:16.334Z,3.40
2019-04-19T21:49:47.934Z,3.80
2019-04-19T21:52:16.256Z,4.40
2019-04-19T21:54:42.065Z,4.40
2019-04-19T21:57:09.102Z,3.03
2019-04-19T21:59:40.707Z,3.53
2019-04-19T22:02:07.627Z,3.10
2019-04-19T22:04:42.742Z,3.27
2019-04-19T22:07:07.018Z,3.80
2019-04-19T22:09:32.571Z,3.73
2019-04-19T22:12:00.565Z,4.80
2019-04-19T22:14:31.319Z,4.10
2019-04-19T22:16:56.781Z,3.80
2019-04-19T22:19:29.441Z,3.47
2019-04-19T22:21:53.313Z,3.43
2019-04-19T22:24:26.057Z,3.93
2019-04-19T22:26:53.907Z,3.73
2019-04-19T22:29:19.694Z,3.60
2019-04-19T22:31:47.673Z,3.60
2019-04-19T22:34:14.808Z,3.23
2019-04-19T22:36:45.677Z,3.40
2019-04-19T22:39:11.638Z,3.20
2019-04-19T22:41:38.986Z,3.50
2019-04-19T22:44:06.968Z,3.50
2019-04-19T22:46:39.256Z,3.60
2019-04-19T22:49:06.768Z,3.30
2019-04-19T22:51:31.356Z,3.27
2019-04-19T22:53:58.814Z,3.50
2019-04-19T22:56:34.667Z,3.60
2019-04-19T22:58:58.145Z,3.57
2019-04-19T23:01:31.246Z,3.43
2019-04-19T23:04:05.515Z,3.20
2019-04-19T23:06:30.930Z,2.77
2019-04-19T23:09:00.965Z,3.10
2019-04-19T23:11:27.773Z,3.37
2019-04-19T23:13:55.683Z,3.20
2019-04-19T23:16:23.613Z,3.30
2019-04-19T23:18:55.313Z,3.30
2019-04-19T23:21:22.920Z,3.37
2019-04-19T23:23:49.143Z,3.77
2019-04-19T23:26:29.418Z,2.93
2019-04-19T23:28:49.514Z,3.47
2019-04-19T23:31:17.963Z,3.20
2019-04-19T23:33:50.043Z,3.50
2019-04-19T23:36:17.779Z,3.37
2019-04-19T23:38:43.290Z,3.30
2019-04-19T23:41:11.021Z,3.30
2019-04-19T23:43:41.968Z,3.13
2019-04-19T23:46:14.617Z,3.40
2019-04-19T23:48:37.327Z,3.20
2019-04-19T23:51:06.219Z,3.60
2019-04-19T23:53:37.386Z,3.73
2019-04-19T23:56:19.108Z,3.53
2019-04-19T23:58:39.586Z,3.60
